sensor_id;sensor_type;location;lat;lon;timestamp;temperature;humidity
76936;DHT22;65881;52.438;16.744;2023-04-24T00:01:49;11.70;94.20
76936;DHT22;65881;52.438;16.744;2023-04-24T00:04:15;11.50;94.30
76936;DHT22;65881;52.438;16.744;2023-04-24T00:06:42;11.50;94.90
76936;DHT22;65881;52.438;16.744;2023-04-24T00:09:11;11.50;95.20
76936;DHT22;65881;52.438;16.744;2023-04-24T00:11:37;11.50;94.90
76936;DHT22;65881;52.438;16.744;2023-04-24T00:14:03;11.50;95.40
76936;DHT22;65881;52.438;16.744;2023-04-24T00:16:38;11.50;95.20
76936;DHT22;65881;52.438;16.744;2023-04-24T00:19:04;11.50;95.70
76936;DHT22;65881;52.438;16.744;2023-04-24T00:21:31;11.40;96.40
76936;DHT22;65881;52.438;16.744;2023-04-24T00:23:58;11.40;97.00
76936;DHT22;65881;52.438;16.744;2023-04-24T00:26:23;11.40;97.30
76936;DHT22;65881;52.438;16.744;2023-04-24T00:28:49;11.40;97.30
76936;DHT22;65881;52.438;16.744;2023-04-24T00:31:15;11.40;97.20
76936;DHT22;65881;52.438;16.744;2023-04-24T00:33:41;11.40;97.30
76936;DHT22;65881;52.438;16.744;2023-04-24T00:36:06;11.40;97.20
76936;DHT22;65881;52.438;16.744;2023-04-24T00:38:35;11.30;97.50
76936;DHT22;65881;52.438;16.744;2023-04-24T00:41:00;11.40;97.70
76936;DHT22;65881;52.438;16.744;2023-04-24T00:43:28;11.50;97.30
76936;DHT22;65881;52.438;16.744;2023-04-24T00:45:54;11.50;97.20
76936;DHT22;65881;52.438;16.744;2023-04-24T00:48:20;11.50;97.30
76936;DHT22;65881;52.438;16.744;2023-04-24T00:50:46;11.50;97.30
76936;DHT22;65881;52.438;16.744;2023-04-24T00:53:12;11.50;97.10
76936;DHT22;65881;52.438;16.744;2023-04-24T00:55:38;11.50;96.50
76936;DHT22;65881;52.438;16.744;2023-04-24T00:58:04;11.50;96.00
76936;DHT22;65881;52.438;16.744;2023-04-24T01:00:30;11.50;95.70
76936;DHT22;65881;52.438;16.744;2023-04-24T01:02:58;11.40;95.70
76936;DHT22;65881;52.438;16.744;2023-04-24T01:05:24;11.40;96.00
76936;DHT22;65881;52.438;16.744;2023-04-24T01:07:51;11.30;96.50
76936;DHT22;65881;52.438;16.744;2023-04-24T01:10:17;11.30;96.50
76936;DHT22;65881;52.438;16.744;2023-04-24T01:12:43;11.30;96.60
76936;DHT22;65881;52.438;16.744;2023-04-24T01:15:09;11.30;96.80
76936;DHT22;65881;52.438;16.744;2023-04-24T01:17:35;11.40;96.90
76936;DHT22;65881;52.438;16.744;2023-04-24T01:20:09;11.40;96.90
76936;DHT22;65881;52.438;16.744;2023-04-24T01:22:37;11.40;96.70
76936;DHT22;65881;52.438;16.744;2023-04-24T01:25:06;11.30;96.90
76936;DHT22;65881;52.438;16.744;2023-04-24T01:27:59;11.30;97.10
76936;DHT22;65881;52.438;16.744;2023-04-24T01:30:31;11.40;97.00
76936;DHT22;65881;52.438;16.744;2023-04-24T01:33:06;11.40;97.00
76936;DHT22;65881;52.438;16.744;2023-04-24T01:35:32;11.40;97.20
76936;DHT22;65881;52.438;16.744;2023-04-24T01:37:58;11.40;97.20
76936;DHT22;65881;52.438;16.744;2023-04-24T01:40:24;11.40;96.80
76936;DHT22;65881;52.438;16.744;2023-04-24T01:42:50;11.50;96.50
76936;DHT22;65881;52.438;16.744;2023-04-24T01:45:16;11.50;96.80
76936;DHT22;65881;52.438;16.744;2023-04-24T01:47:42;11.40;97.00
76936;DHT22;65881;52.438;16.744;2023-04-24T01:50:08;11.40;97.20
76936;DHT22;65881;52.438;16.744;2023-04-24T01:52:34;11.40;97.60
76936;DHT22;65881;52.438;16.744;2023-04-24T01:55:03;11.40;97.80
76936;DHT22;65881;52.438;16.744;2023-04-24T01:57:30;11.30;97.80
76936;DHT22;65881;52.438;16.744;2023-04-24T01:59:56;11.30;97.80
76936;DHT22;65881;52.438;16.744;2023-04-24T02:02:22;11.30;97.90
76936;DHT22;65881;52.438;16.744;2023-04-24T02:04:50;11.40;97.70
76936;DHT22;65881;52.438;16.744;2023-04-24T02:07:16;11.50;97.20
76936;DHT22;65881;52.438;16.744;2023-04-24T02:09:41;11.40;96.90
76936;DHT22;65881;52.438;16.744;2023-04-24T02:12:07;11.40;97.10
76936;DHT22;65881;52.438;16.744;2023-04-24T02:14:33;11.40;97.20
76936;DHT22;65881;52.438;16.744;2023-04-24T02:16:59;11.30;97.00
76936;DHT22;65881;52.438;16.744;2023-04-24T02:19:26;11.20;97.20
76936;DHT22;65881;52.438;16.744;2023-04-24T02:21:52;11.30;97.10
76936;DHT22;65881;52.438;16.744;2023-04-24T02:24:17;11.30;96.80
76936;DHT22;65881;52.438;16.744;2023-04-24T02:26:43;11.30;96.80
76936;DHT22;65881;52.438;16.744;2023-04-24T02:29:09;11.20;97.00
76936;DHT22;65881;52.438;16.744;2023-04-24T02:31:34;11.10;97.10
76936;DHT22;65881;52.438;16.744;2023-04-24T02:34:00;11.10;97.40
76936;DHT22;65881;52.438;16.744;2023-04-24T02:36:27;11.10;97.50
76936;DHT22;65881;52.438;16.744;2023-04-24T02:38:53;11.10;97.50
76936;DHT22;65881;52.438;16.744;2023-04-24T02:41:19;11.10;97.50
76936;DHT22;65881;52.438;16.744;2023-04-24T02:47:52;11.10;97.60
76936;DHT22;65881;52.438;16.744;2023-04-24T02:58:10;11.00;97.50
76936;DHT22;65881;52.438;16.744;2023-04-24T03:00:38;11.00;97.30
76936;DHT22;65881;52.438;16.744;2023-04-24T03:03:04;10.90;97.10
76936;DHT22;65881;52.438;16.744;2023-04-24T03:08:49;10.90;97.10
76936;DHT22;65881;52.438;16.744;2023-04-24T03:11:15;10.80;97.10
76936;DHT22;65881;52.438;16.744;2023-04-24T03:28:10;11.00;97.20
76936;DHT22;65881;52.438;16.744;2023-04-24T03:30:36;11.00;97.00
76936;DHT22;65881;52.438;16.744;2023-04-24T03:33:28;11.00;96.60
76936;DHT22;65881;52.438;16.744;2023-04-24T03:35:57;11.00;96.70
76936;DHT22;65881;52.438;16.744;2023-04-24T03:38:23;10.90;96.70
76936;DHT22;65881;52.438;16.744;2023-04-24T03:40:49;10.90;96.60
76936;DHT22;65881;52.438;16.744;2023-04-24T03:43:15;10.80;96.70
76936;DHT22;65881;52.438;16.744;2023-04-24T03:49:08;10.70;96.80
76936;DHT22;65881;52.438;16.744;2023-04-24T03:51:37;10.60;96.80
76936;DHT22;65881;52.438;16.744;2023-04-24T03:54:04;10.60;97.10
76936;DHT22;65881;52.438;16.744;2023-04-24T03:56:30;10.50;97.20
76936;DHT22;65881;52.438;16.744;2023-04-24T03:58:55;10.40;97.40
76936;DHT22;65881;52.438;16.744;2023-04-24T04:01:21;10.40;97.70
76936;DHT22;65881;52.438;16.744;2023-04-24T04:03:47;10.30;98.00
76936;DHT22;65881;52.438;16.744;2023-04-24T04:06:13;10.30;98.20
76936;DHT22;65881;52.438;16.744;2023-04-24T04:08:39;10.30;98.50
76936;DHT22;65881;52.438;16.744;2023-04-24T04:11:09;10.30;98.70
76936;DHT22;65881;52.438;16.744;2023-04-24T04:13:37;10.30;98.60
76936;DHT22;65881;52.438;16.744;2023-04-24T04:16:03;10.30;98.50
76936;DHT22;65881;52.438;16.744;2023-04-24T04:18:30;10.30;98.40
76936;DHT22;65881;52.438;16.744;2023-04-24T04:20:56;10.30;98.50
76936;DHT22;65881;52.438;16.744;2023-04-24T04:23:22;10.30;98.60
76936;DHT22;65881;52.438;16.744;2023-04-24T04:25:48;10.40;98.40
76936;DHT22;65881;52.438;16.744;2023-04-24T04:28:15;10.40;98.00
76936;DHT22;65881;52.438;16.744;2023-04-24T04:30:41;10.40;98.20
76936;DHT22;65881;52.438;16.744;2023-04-24T04:33:07;10.40;98.40
76936;DHT22;65881;52.438;16.744;2023-04-24T04:35:33;10.30;98.40
76936;DHT22;65881;52.438;16.744;2023-04-24T04:38:00;10.20;98.50
76936;DHT22;65881;52.438;16.744;2023-04-24T04:40:26;10.20;98.50
76936;DHT22;65881;52.438;16.744;2023-04-24T04:42:53;10.20;98.30
76936;DHT22;65881;52.438;16.744;2023-04-24T04:45:19;10.20;98.20
76936;DHT22;65881;52.438;16.744;2023-04-24T04:47:46;10.20;98.00
76936;DHT22;65881;52.438;16.744;2023-04-24T04:50:12;10.20;98.20
76936;DHT22;65881;52.438;16.744;2023-04-24T04:52:37;10.20;98.40
76936;DHT22;65881;52.438;16.744;2023-04-24T04:55:03;10.20;98.60
76936;DHT22;65881;52.438;16.744;2023-04-24T04:57:30;10.30;98.80
76936;DHT22;65881;52.438;16.744;2023-04-24T04:59:56;10.40;98.60
76936;DHT22;65881;52.438;16.744;2023-04-24T05:02:22;10.50;98.50
76936;DHT22;65881;52.438;16.744;2023-04-24T05:04:47;10.60;98.30
76936;DHT22;65881;52.438;16.744;2023-04-24T05:07:13;10.70;98.30
76936;DHT22;65881;52.438;16.744;2023-04-24T05:09:39;10.70;98.50
76936;DHT22;65881;52.438;16.744;2023-04-24T05:12:04;10.90;98.70
76936;DHT22;65881;52.438;16.744;2023-04-24T05:14:30;11.10;99.10
76936;DHT22;65881;52.438;16.744;2023-04-24T05:16:56;11.30;97.80
76936;DHT22;65881;52.438;16.744;2023-04-24T05:19:21;11.50;96.90
76936;DHT22;65881;52.438;16.744;2023-04-24T05:21:47;11.70;95.80
76936;DHT22;65881;52.438;16.744;2023-04-24T05:24:13;11.80;94.70
76936;DHT22;65881;52.438;16.744;2023-04-24T05:26:38;11.80;94.30
76936;DHT22;65881;52.438;16.744;2023-04-24T05:29:04;11.90;93.50
76936;DHT22;65881;52.438;16.744;2023-04-24T05:31:30;12.00;93.00
76936;DHT22;65881;52.438;16.744;2023-04-24T05:33:56;12.10;92.10
76936;DHT22;65881;52.438;16.744;2023-04-24T05:36:24;12.20;91.60
76936;DHT22;65881;52.438;16.744;2023-04-24T05:38:49;12.20;91.80
76936;DHT22;65881;52.438;16.744;2023-04-24T05:41:15;12.30;91.40
76936;DHT22;65881;52.438;16.744;2023-04-24T05:43:40;12.20;90.60
76936;DHT22;65881;52.438;16.744;2023-04-24T05:46:06;12.20;90.90
76936;DHT22;65881;52.438;16.744;2023-04-24T05:48:32;12.20;91.20
76936;DHT22;65881;52.438;16.744;2023-04-24T05:50:57;12.20;91.20
76936;DHT22;65881;52.438;16.744;2023-04-24T05:53:23;12.20;91.50
76936;DHT22;65881;52.438;16.744;2023-04-24T05:55:48;12.20;91.90
76936;DHT22;65881;52.438;16.744;2023-04-24T05:58:15;12.20;91.80
76936;DHT22;65881;52.438;16.744;2023-04-24T06:00:40;12.20;92.20
76936;DHT22;65881;52.438;16.744;2023-04-24T06:03:08;12.30;92.20
76936;DHT22;65881;52.438;16.744;2023-04-24T06:05:35;12.30;91.70
76936;DHT22;65881;52.438;16.744;2023-04-24T06:08:00;12.50;90.90
76936;DHT22;65881;52.438;16.744;2023-04-24T06:10:26;12.50;89.70
76936;DHT22;65881;52.438;16.744;2023-04-24T06:12:52;12.70;90.10
76936;DHT22;65881;52.438;16.744;2023-04-24T06:15:21;12.70;90.70
76936;DHT22;65881;52.438;16.744;2023-04-24T06:17:47;12.70;90.30
76936;DHT22;65881;52.438;16.744;2023-04-24T06:20:13;12.70;89.60
76936;DHT22;65881;52.438;16.744;2023-04-24T06:22:38;12.70;89.60
76936;DHT22;65881;52.438;16.744;2023-04-24T06:25:06;12.80;89.00
76936;DHT22;65881;52.438;16.744;2023-04-24T06:27:33;12.80;88.90
76936;DHT22;65881;52.438;16.744;2023-04-24T06:29:58;12.80;89.20
76936;DHT22;65881;52.438;16.744;2023-04-24T06:32:24;12.80;88.90
76936;DHT22;65881;52.438;16.744;2023-04-24T06:34:53;12.80;89.40
76936;DHT22;65881;52.438;16.744;2023-04-24T06:37:22;12.80;89.50
76936;DHT22;65881;52.438;16.744;2023-04-24T06:39:50;12.70;90.10
76936;DHT22;65881;52.438;16.744;2023-04-24T06:42:16;12.80;89.80
76936;DHT22;65881;52.438;16.744;2023-04-24T06:44:41;12.80;89.50
76936;DHT22;65881;52.438;16.744;2023-04-24T06:47:09;12.90;89.70
76936;DHT22;65881;52.438;16.744;2023-04-24T06:49:36;13.10;89.60
76936;DHT22;65881;52.438;16.744;2023-04-24T06:52:02;13.50;87.20
76936;DHT22;65881;52.438;16.744;2023-04-24T06:54:28;13.90;86.40
76936;DHT22;65881;52.438;16.744;2023-04-24T06:56:53;14.50;83.30
76936;DHT22;65881;52.438;16.744;2023-04-24T06:59:20;14.70;82.00
76936;DHT22;65881;52.438;16.744;2023-04-24T07:01:45;14.80;80.10
76936;DHT22;65881;52.438;16.744;2023-04-24T07:04:11;14.70;79.90
76936;DHT22;65881;52.438;16.744;2023-04-24T07:06:40;14.50;80.90
76936;DHT22;65881;52.438;16.744;2023-04-24T07:09:06;14.40;80.50
76936;DHT22;65881;52.438;16.744;2023-04-24T07:11:31;14.30;81.40
76936;DHT22;65881;52.438;16.744;2023-04-24T07:14:00;14.30;80.60
76936;DHT22;65881;52.438;16.744;2023-04-24T07:16:28;14.20;80.40
76936;DHT22;65881;52.438;16.744;2023-04-24T07:18:55;14.10;80.70
76936;DHT22;65881;52.438;16.744;2023-04-24T07:21:23;14.10;81.10
76936;DHT22;65881;52.438;16.744;2023-04-24T07:23:49;14.00;80.70
76936;DHT22;65881;52.438;16.744;2023-04-24T07:26:14;14.00;81.40
76936;DHT22;65881;52.438;16.744;2023-04-24T07:28:43;13.90;82.30
76936;DHT22;65881;52.438;16.744;2023-04-24T07:31:11;13.90;82.70
76936;DHT22;65881;52.438;16.744;2023-04-24T07:33:37;13.90;83.00
76936;DHT22;65881;52.438;16.744;2023-04-24T07:36:03;13.90;82.10
76936;DHT22;65881;52.438;16.744;2023-04-24T07:38:30;13.90;82.70
76936;DHT22;65881;52.438;16.744;2023-04-24T07:40:55;13.90;83.40
76936;DHT22;65881;52.438;16.744;2023-04-24T07:43:21;13.90;83.30
76936;DHT22;65881;52.438;16.744;2023-04-24T07:45:49;13.90;83.90
76936;DHT22;65881;52.438;16.744;2023-04-24T07:48:15;14.00;82.80
76936;DHT22;65881;52.438;16.744;2023-04-24T07:50:42;14.00;82.80
76936;DHT22;65881;52.438;16.744;2023-04-24T07:53:07;14.20;82.50
76936;DHT22;65881;52.438;16.744;2023-04-24T07:55:33;14.30;82.20
76936;DHT22;65881;52.438;16.744;2023-04-24T07:57:59;14.40;81.90
76936;DHT22;65881;52.438;16.744;2023-04-24T08:00:25;14.40;81.50
76936;DHT22;65881;52.438;16.744;2023-04-24T08:02:50;14.50;80.70
76936;DHT22;65881;52.438;16.744;2023-04-24T08:05:16;14.50;80.60
76936;DHT22;65881;52.438;16.744;2023-04-24T08:07:42;14.50;79.10
76936;DHT22;65881;52.438;16.744;2023-04-24T08:10:10;14.50;79.60
76936;DHT22;65881;52.438;16.744;2023-04-24T08:12:37;14.40;79.80
76936;DHT22;65881;52.438;16.744;2023-04-24T08:15:09;14.50;80.40
76936;DHT22;65881;52.438;16.744;2023-04-24T08:17:35;14.50;81.00
76936;DHT22;65881;52.438;16.744;2023-04-24T08:20:02;14.60;79.00
76936;DHT22;65881;52.438;16.744;2023-04-24T08:22:28;14.60;79.70
76936;DHT22;65881;52.438;16.744;2023-04-24T08:24:54;14.60;79.00
76936;DHT22;65881;52.438;16.744;2023-04-24T08:27:21;14.60;79.70
76936;DHT22;65881;52.438;16.744;2023-04-24T08:29:49;14.70;79.50
76936;DHT22;65881;52.438;16.744;2023-04-24T08:32:16;14.80;78.30
76936;DHT22;65881;52.438;16.744;2023-04-24T08:34:42;14.70;78.60
76936;DHT22;65881;52.438;16.744;2023-04-24T08:37:07;14.80;78.60
76936;DHT22;65881;52.438;16.744;2023-04-24T08:39:33;15.00;78.70
76936;DHT22;65881;52.438;16.744;2023-04-24T08:42:00;15.20;78.50
76936;DHT22;65881;52.438;16.744;2023-04-24T08:44:32;15.50;78.50
76936;DHT22;65881;52.438;16.744;2023-04-24T08:46:58;15.60;76.90
76936;DHT22;65881;52.438;16.744;2023-04-24T08:49:24;15.70;75.60
76936;DHT22;65881;52.438;16.744;2023-04-24T08:51:52;15.80;75.50
76936;DHT22;65881;52.438;16.744;2023-04-24T08:54:18;15.80;76.80
76936;DHT22;65881;52.438;16.744;2023-04-24T08:56:45;15.80;75.40
76936;DHT22;65881;52.438;16.744;2023-04-24T08:59:14;15.80;74.70
76936;DHT22;65881;52.438;16.744;2023-04-24T09:01:41;15.90;74.60
76936;DHT22;65881;52.438;16.744;2023-04-24T09:04:08;15.80;74.80
76936;DHT22;65881;52.438;16.744;2023-04-24T09:06:35;15.80;75.20
76936;DHT22;65881;52.438;16.744;2023-04-24T09:09:01;15.80;74.40
76936;DHT22;65881;52.438;16.744;2023-04-24T09:11:30;15.80;75.20
76936;DHT22;65881;52.438;16.744;2023-04-24T09:13:56;16.10;73.60
76936;DHT22;65881;52.438;16.744;2023-04-24T09:16:22;16.10;73.30
76936;DHT22;65881;52.438;16.744;2023-04-24T09:18:50;16.10;73.90
76936;DHT22;65881;52.438;16.744;2023-04-24T09:21:16;16.20;73.60
76936;DHT22;65881;52.438;16.744;2023-04-24T09:23:41;16.20;73.30
76936;DHT22;65881;52.438;16.744;2023-04-24T09:26:09;16.10;74.20
76936;DHT22;65881;52.438;16.744;2023-04-24T09:28:37;16.30;74.70
76936;DHT22;65881;52.438;16.744;2023-04-24T09:31:04;16.50;73.60
76936;DHT22;65881;52.438;16.744;2023-04-24T09:33:30;16.70;73.70
76936;DHT22;65881;52.438;16.744;2023-04-24T09:35:56;16.90;71.20
76936;DHT22;65881;52.438;16.744;2023-04-24T09:38:35;16.80;72.20
76936;DHT22;65881;52.438;16.744;2023-04-24T09:41:03;16.70;73.10
76936;DHT22;65881;52.438;16.744;2023-04-24T09:43:30;16.60;73.20
76936;DHT22;65881;52.438;16.744;2023-04-24T09:45:57;16.80;71.70
76936;DHT22;65881;52.438;16.744;2023-04-24T09:48:30;16.90;71.80
76936;DHT22;65881;52.438;16.744;2023-04-24T09:50:57;17.00;71.90
76936;DHT22;65881;52.438;16.744;2023-04-24T09:53:26;16.90;71.20
76936;DHT22;65881;52.438;16.744;2023-04-24T09:55:52;17.00;70.80
76936;DHT22;65881;52.438;16.744;2023-04-24T09:58:25;17.00;71.60
76936;DHT22;65881;52.438;16.744;2023-04-24T10:00:54;17.00;70.90
76936;DHT22;65881;52.438;16.744;2023-04-24T10:03:20;17.00;70.60
76936;DHT22;65881;52.438;16.744;2023-04-24T10:05:47;17.20;71.20
76936;DHT22;65881;52.438;16.744;2023-04-24T10:08:13;17.10;71.00
76936;DHT22;65881;52.438;16.744;2023-04-24T10:10:43;17.20;70.40
76936;DHT22;65881;52.438;16.744;2023-04-24T10:13:10;17.20;70.10
76936;DHT22;65881;52.438;16.744;2023-04-24T10:15:37;16.80;71.00
76936;DHT22;65881;52.438;16.744;2023-04-24T10:18:04;16.70;72.60
76936;DHT22;65881;52.438;16.744;2023-04-24T10:20:32;16.60;71.60
76936;DHT22;65881;52.438;16.744;2023-04-24T10:22:59;16.70;72.30
76936;DHT22;65881;52.438;16.744;2023-04-24T10:25:28;16.60;73.60
76936;DHT22;65881;52.438;16.744;2023-04-24T10:27:54;16.70;73.20
76936;DHT22;65881;52.438;16.744;2023-04-24T10:30:31;16.70;73.00
76936;DHT22;65881;52.438;16.744;2023-04-24T10:33:01;16.70;73.20
76936;DHT22;65881;52.438;16.744;2023-04-24T10:35:30;16.80;72.70
76936;DHT22;65881;52.438;16.744;2023-04-24T10:38:03;16.90;71.90
76936;DHT22;65881;52.438;16.744;2023-04-24T10:40:34;17.00;71.10
76936;DHT22;65881;52.438;16.744;2023-04-24T10:43:03;17.00;70.60
76936;DHT22;65881;52.438;16.744;2023-04-24T10:45:31;17.00;70.60
76936;DHT22;65881;52.438;16.744;2023-04-24T10:47:58;17.10;69.40
76936;DHT22;65881;52.438;16.744;2023-04-24T10:50:28;17.20;70.30
76936;DHT22;65881;52.438;16.744;2023-04-24T10:53:11;17.20;68.60
76936;DHT22;65881;52.438;16.744;2023-04-24T10:58:43;17.50;66.40
76936;DHT22;65881;52.438;16.744;2023-04-24T11:01:29;17.70;66.30
76936;DHT22;65881;52.438;16.744;2023-04-24T11:03:56;18.00;64.20
76936;DHT22;65881;52.438;16.744;2023-04-24T11:06:48;18.00;64.90
76936;DHT22;65881;52.438;16.744;2023-04-24T11:09:17;18.00;63.40
76936;DHT22;65881;52.438;16.744;2023-04-24T11:11:46;18.20;63.00
76936;DHT22;65881;52.438;16.744;2023-04-24T11:14:16;18.60;60.90
76936;DHT22;65881;52.438;16.744;2023-04-24T11:16:51;18.40;61.80
76936;DHT22;65881;52.438;16.744;2023-04-24T11:19:27;18.60;61.90
76936;DHT22;65881;52.438;16.744;2023-04-24T11:22:01;18.30;61.60
76936;DHT22;65881;52.438;16.744;2023-04-24T11:32:29;17.80;60.30
76936;DHT22;65881;52.438;16.744;2023-04-24T11:37:42;18.40;60.40
76936;DHT22;65881;52.438;16.744;2023-04-24T11:40:12;18.70;58.70
76936;DHT22;65881;52.438;16.744;2023-04-24T11:42:43;18.70;59.70
76936;DHT22;65881;52.438;16.744;2023-04-24T11:45:18;18.90;58.50
76936;DHT22;65881;52.438;16.744;2023-04-24T11:47:44;18.70;57.60
76936;DHT22;65881;52.438;16.744;2023-04-24T11:50:23;18.70;59.70
76936;DHT22;65881;52.438;16.744;2023-04-24T11:52:51;18.90;56.00
76936;DHT22;65881;52.438;16.744;2023-04-24T11:57:44;18.60;57.80
76936;DHT22;65881;52.438;16.744;2023-04-24T12:00:16;18.60;58.40
76936;DHT22;65881;52.438;16.744;2023-04-24T12:02:44;18.50;60.00
76936;DHT22;65881;52.438;16.744;2023-04-24T12:05:19;18.50;59.70
76936;DHT22;65881;52.438;16.744;2023-04-24T12:07:45;18.50;59.80
76936;DHT22;65881;52.438;16.744;2023-04-24T12:10:11;18.60;59.70
76936;DHT22;65881;52.438;16.744;2023-04-24T12:12:39;18.70;58.50
76936;DHT22;65881;52.438;16.744;2023-04-24T12:15:09;18.60;59.00
76936;DHT22;65881;52.438;16.744;2023-04-24T12:17:35;18.60;59.00
76936;DHT22;65881;52.438;16.744;2023-04-24T12:20:19;18.40;58.20
76936;DHT22;65881;52.438;16.744;2023-04-24T12:22:55;18.10;58.20
76936;DHT22;65881;52.438;16.744;2023-04-24T12:25:23;18.00;59.30
76936;DHT22;65881;52.438;16.744;2023-04-24T12:28:15;18.20;58.60
76936;DHT22;65881;52.438;16.744;2023-04-24T12:30:44;18.10;59.30
76936;DHT22;65881;52.438;16.744;2023-04-24T12:33:20;18.10;59.70
76936;DHT22;65881;52.438;16.744;2023-04-24T12:35:48;18.00;58.80
76936;DHT22;65881;52.438;16.744;2023-04-24T12:38:21;17.90;60.00
76936;DHT22;65881;52.438;16.744;2023-04-24T12:40:47;17.80;60.30
76936;DHT22;65881;52.438;16.744;2023-04-24T12:43:19;17.80;61.20
76936;DHT22;65881;52.438;16.744;2023-04-24T12:45:47;17.60;60.90
76936;DHT22;65881;52.438;16.744;2023-04-24T12:48:13;17.50;61.10
76936;DHT22;65881;52.438;16.744;2023-04-24T12:50:44;17.40;59.90
76936;DHT22;65881;52.438;16.744;2023-04-24T12:53:10;17.40;59.70
76936;DHT22;65881;52.438;16.744;2023-04-24T12:55:37;17.20;59.30
76936;DHT22;65881;52.438;16.744;2023-04-24T12:58:02;17.20;60.60
76936;DHT22;65881;52.438;16.744;2023-04-24T13:00:28;17.00;61.10
76936;DHT22;65881;52.438;16.744;2023-04-24T13:02:54;17.00;61.80
76936;DHT22;65881;52.438;16.744;2023-04-24T13:05:20;17.00;60.90
76936;DHT22;65881;52.438;16.744;2023-04-24T13:07:45;16.90;61.50
76936;DHT22;65881;52.438;16.744;2023-04-24T13:10:11;16.90;61.80
76936;DHT22;65881;52.438;16.744;2023-04-24T13:12:38;16.80;61.90
76936;DHT22;65881;52.438;16.744;2023-04-24T13:15:05;16.70;62.60
76936;DHT22;65881;52.438;16.744;2023-04-24T13:17:31;16.70;64.20
76936;DHT22;65881;52.438;16.744;2023-04-24T13:19:56;16.60;64.30
76936;DHT22;65881;52.438;16.744;2023-04-24T13:22:23;16.50;66.40
76936;DHT22;65881;52.438;16.744;2023-04-24T13:24:49;16.40;67.20
76936;DHT22;65881;52.438;16.744;2023-04-24T13:27:15;16.40;66.20
76936;DHT22;65881;52.438;16.744;2023-04-24T13:29:42;16.10;68.30
76936;DHT22;65881;52.438;16.744;2023-04-24T13:32:08;16.00;70.40
76936;DHT22;65881;52.438;16.744;2023-04-24T13:34:34;16.00;66.80
76936;DHT22;65881;52.438;16.744;2023-04-24T13:37:04;16.00;64.20
76936;DHT22;65881;52.438;16.744;2023-04-24T13:39:30;16.00;63.90
76936;DHT22;65881;52.438;16.744;2023-04-24T13:41:58;16.10;61.80
76936;DHT22;65881;52.438;16.744;2023-04-24T13:44:24;16.10;60.80
76936;DHT22;65881;52.438;16.744;2023-04-24T13:46:57;16.10;60.30
76936;DHT22;65881;52.438;16.744;2023-04-24T13:49:24;16.10;60.30
76936;DHT22;65881;52.438;16.744;2023-04-24T13:51:51;16.10;60.90
76936;DHT22;65881;52.438;16.744;2023-04-24T13:54:27;16.10;58.90
76936;DHT22;65881;52.438;16.744;2023-04-24T13:56:57;16.20;59.30
76936;DHT22;65881;52.438;16.744;2023-04-24T13:59:43;16.20;60.50
76936;DHT22;65881;52.438;16.744;2023-04-24T14:02:29;16.30;59.90
76936;DHT22;65881;52.438;16.744;2023-04-24T14:04:55;16.40;58.90
76936;DHT22;65881;52.438;16.744;2023-04-24T14:07:21;16.40;57.70
76936;DHT22;65881;52.438;16.744;2023-04-24T14:10:03;16.40;59.00
76936;DHT22;65881;52.438;16.744;2023-04-24T14:12:29;16.40;59.80
76936;DHT22;65881;52.438;16.744;2023-04-24T14:14:55;16.40;58.60
76936;DHT22;65881;52.438;16.744;2023-04-24T14:17:32;16.30;59.10
76936;DHT22;65881;52.438;16.744;2023-04-24T14:19:58;16.20;59.30
76936;DHT22;65881;52.438;16.744;2023-04-24T14:22:44;16.10;60.40
76936;DHT22;65881;52.438;16.744;2023-04-24T14:25:13;16.20;59.20
76936;DHT22;65881;52.438;16.744;2023-04-24T14:27:41;16.10;58.30
76936;DHT22;65881;52.438;16.744;2023-04-24T14:30:19;16.00;59.00
76936;DHT22;65881;52.438;16.744;2023-04-24T14:33:03;16.00;59.20
76936;DHT22;65881;52.438;16.744;2023-04-24T14:35:31;15.90;58.70
76936;DHT22;65881;52.438;16.744;2023-04-24T14:38:05;15.80;60.70
76936;DHT22;65881;52.438;16.744;2023-04-24T14:40:35;15.80;61.50
76936;DHT22;65881;52.438;16.744;2023-04-24T14:43:12;15.70;61.80
76936;DHT22;65881;52.438;16.744;2023-04-24T14:45:38;15.60;62.20
76936;DHT22;65881;52.438;16.744;2023-04-24T14:48:11;15.60;62.70
76936;DHT22;65881;52.438;16.744;2023-04-24T14:50:37;15.60;64.70
76936;DHT22;65881;52.438;16.744;2023-04-24T14:56:18;15.50;64.20
76936;DHT22;65881;52.438;16.744;2023-04-24T14:58:43;15.40;65.00
76936;DHT22;65881;52.438;16.744;2023-04-24T15:01:18;15.40;65.40
76936;DHT22;65881;52.438;16.744;2023-04-24T15:03:56;15.40;66.20
76936;DHT22;65881;52.438;16.744;2023-04-24T15:06:32;15.40;66.00
76936;DHT22;65881;52.438;16.744;2023-04-24T15:09:08;15.50;68.10
76936;DHT22;65881;52.438;16.744;2023-04-24T15:11:33;15.50;68.40
76936;DHT22;65881;52.438;16.744;2023-04-24T15:13:59;15.50;68.80
76936;DHT22;65881;52.438;16.744;2023-04-24T15:17:01;15.30;69.30
76936;DHT22;65881;52.438;16.744;2023-04-24T15:19:32;15.10;70.30
76936;DHT22;65881;52.438;16.744;2023-04-24T15:22:00;15.00;68.50
76936;DHT22;65881;52.438;16.744;2023-04-24T15:24:35;14.80;68.10
76936;DHT22;65881;52.438;16.744;2023-04-24T15:27:01;14.70;69.40
76936;DHT22;65881;52.438;16.744;2023-04-24T15:29:39;14.60;70.20
76936;DHT22;65881;52.438;16.744;2023-04-24T15:32:07;14.60;70.10
76936;DHT22;65881;52.438;16.744;2023-04-24T15:34:54;14.60;69.60
76936;DHT22;65881;52.438;16.744;2023-04-24T15:37:23;14.60;70.20
76936;DHT22;65881;52.438;16.744;2023-04-24T15:39:48;14.50;70.80
76936;DHT22;65881;52.438;16.744;2023-04-24T15:42:15;14.60;70.30
76936;DHT22;65881;52.438;16.744;2023-04-24T15:44:41;14.50;70.10
76936;DHT22;65881;52.438;16.744;2023-04-24T15:47:07;14.50;70.20
76936;DHT22;65881;52.438;16.744;2023-04-24T15:49:35;14.50;69.60
76936;DHT22;65881;52.438;16.744;2023-04-24T15:52:01;14.60;69.90
76936;DHT22;65881;52.438;16.744;2023-04-24T15:54:45;14.60;68.90
76936;DHT22;65881;52.438;16.744;2023-04-24T15:57:20;14.60;69.30
76936;DHT22;65881;52.438;16.744;2023-04-24T15:59:46;14.60;69.70
76936;DHT22;65881;52.438;16.744;2023-04-24T16:02:17;14.50;70.30
76936;DHT22;65881;52.438;16.744;2023-04-24T16:04:45;14.50;69.80
76936;DHT22;65881;52.438;16.744;2023-04-24T16:07:22;14.40;70.30
76936;DHT22;65881;52.438;16.744;2023-04-24T16:09:59;14.30;70.50
76936;DHT22;65881;52.438;16.744;2023-04-24T16:12:25;14.20;71.30
76936;DHT22;65881;52.438;16.744;2023-04-24T16:15:03;14.10;69.70